Time;durP1;ratioP1;P1;durP2;ratioP2;P2;SDS_P1;SDS_P2;PMS_P1;PMS_P2;Temp;Humidity;BMP_temperature;BMP_pressure;BME280_temperature;BME280_humidity;BME280_pressure;Samples;Min_cycle;Max_cycle;Signal;HPM_P1;HPM_P2
2023/03/29 00:02:08;;;;;;;;;;;;;;;14.10;71.56;101504.75;4988801;28;19933;-51
2023/03/29 00:04:34;;;;;;;;;;;;;;;13.66;72.90;101491.56;4989472;28;19922;-54
2023/03/29 00:07:03;;;;;;;;;;;;;;;13.72;74.08;101495.31;4987746;28;19977;-52
2023/03/29 00:09:30;;;;;;;;;;;;;;;14.56;70.96;101490.56;4987410;28;19940;-55
2023/03/29 00:11:56;;;;;;;;;;;;;;;14.41;69.67;101485.38;4986397;28;19918;-51
2023/03/29 00:14:21;;;;;;;;;;;;;;;14.17;70.50;101481.38;4987220;28;19914;-52
2023/03/29 00:16:47;;;;;;;;;;;;;;;14.65;69.48;101477.72;4986115;28;19945;-50
2023/03/29 00:19:13;;;;;;;;;;;;;;;14.80;68.72;101476.72;4989689;28;19945;-54
2023/03/29 00:21:38;;;;;;;;;;;;;;;14.72;68.72;101489.34;4988260;28;19977;-51
2023/03/29 00:24:04;;;;;;;;;;;;;;;14.79;68.62;101483.97;4989951;28;19914;-53
2023/03/29 00:26:29;;;;;;;;;;;;;;;15.10;67.61;101487.03;4990477;28;19914;-55
2023/03/29 00:28:55;;;;;;;;;;;;;;;15.38;66.16;101485.94;4988875;28;19921;-55
2023/03/29 00:31:21;;;;;;;;;;;;;;;15.21;66.48;101478.31;4988538;28;19914;-51
2023/03/29 00:33:46;;;;;;;;;;;;;;;15.15;67.04;101476.47;4988151;28;19949;-53
2023/03/29 00:36:13;;;;;;;;;;;;;;;15.28;66.55;101473.75;4985501;28;19918;-51
2023/03/29 00:38:39;;;;;;;;;;;;;;;15.09;66.99;101472.72;4990019;28;19929;-54
2023/03/29 00:41:05;;;;;;;;;;;;;;;15.25;66.16;101476.88;4985564;28;19922;-52
2023/03/29 00:43:50;;;;;;;;;;;;;;;14.99;66.92;101465.13;4987608;28;19949;-50
2023/03/29 00:46:16;;;;;;;;;;;;;;;15.40;66.61;101457.75;4987749;28;19921;-50
2023/03/29 00:48:41;;;;;;;;;;;;;;;15.11;66.78;101464.47;4994529;28;19914;-52
2023/03/29 00:51:08;;;;;;;;;;;;;;;15.63;65.42;101456.41;4988017;28;19918;-51
2023/03/29 00:53:36;;;;;;;;;;;;;;;15.78;64.62;101459.66;4991423;28;19920;-52
2023/03/29 00:56:03;;;;;;;;;;;;;;;15.23;65.54;101453.84;4988423;28;19914;-51
2023/03/29 00:58:41;;;;;;;;;;;;;;;15.29;66.10;101445.75;4990015;28;19918;-52
2023/03/29 01:01:09;;;;;;;;;;;;;;;15.16;66.52;101445.78;4988430;28;19925;-55
2023/03/29 01:03:40;;;;;;;;;;;;;;;15.16;65.93;101435.00;4987491;28;19935;-51
2023/03/29 01:06:07;;;;;;;;;;;;;;;14.83;66.04;101431.34;4987581;28;19981;-50
2023/03/29 01:08:40;;;;;;;;;;;;;;;14.73;66.38;101425.56;4989692;28;19970;-50
2023/03/29 01:11:13;;;;;;;;;;;;;;;15.60;64.56;101422.63;4990240;28;19947;-49
2023/03/29 01:13:49;;;;;;;;;;;;;;;15.61;63.94;101426.16;4990500;28;19964;-51
2023/03/29 01:16:19;;;;;;;;;;;;;;;15.10;64.44;101423.22;4982868;28;19942;-50
2023/03/29 01:18:47;;;;;;;;;;;;;;;15.03;65.07;101422.41;4982343;28;19914;-51
2023/03/29 01:21:32;;;;;;;;;;;;;;;15.38;64.66;101411.31;4988914;28;19918;-51
2023/03/29 01:24:08;;;;;;;;;;;;;;;15.84;62.39;101414.00;4993030;28;19928;-50
2023/03/29 01:26:33;;;;;;;;;;;;;;;15.02;65.17;101410.81;4998171;28;19929;-48
2023/03/29 01:29:07;;;;;;;;;;;;;;;15.13;65.15;101413.88;4987978;28;20397;-50
2023/03/29 01:31:35;;;;;;;;;;;;;;;15.46;63.72;101407.56;4988261;28;19914;-52
2023/03/29 01:34:08;;;;;;;;;;;;;;;15.18;64.56;101400.59;4991608;28;19929;-49
2023/03/29 01:36:37;;;;;;;;;;;;;;;14.87;66.29;101404.84;4987878;28;19914;-52
2023/03/29 01:39:04;;;;;;;;;;;;;;;15.06;67.08;101403.13;4990257;28;19917;-50
2023/03/29 01:41:45;;;;;;;;;;;;;;;14.82;67.57;101396.56;4995261;28;19918;-52
2023/03/29 01:44:18;;;;;;;;;;;;;;;15.02;68.07;101391.13;4989190;28;19925;-49
2023/03/29 01:46:45;;;;;;;;;;;;;;;14.82;68.95;101391.19;4992302;28;19924;-48
2023/03/29 01:49:13;;;;;;;;;;;;;;;15.53;66.41;101391.34;4990046;28;19925;-49
2023/03/29 01:51:43;;;;;;;;;;;;;;;15.16;67.52;101384.66;4989106;28;19918;-51
2023/03/29 01:54:14;;;;;;;;;;;;;;;15.00;68.01;101377.03;4989755;28;19918;-50
2023/03/29 01:56:42;;;;;;;;;;;;;;;15.20;68.63;101372.41;4984976;28;19923;-50
2023/03/29 01:59:11;;;;;;;;;;;;;;;15.24;67.75;101369.28;4994190;28;19921;-50
2023/03/29 02:01:39;;;;;;;;;;;;;;;15.18;68.78;101395.22;4985826;28;19972;-51
2023/03/29 02:04:06;;;;;;;;;;;;;;;14.59;71.40;101377.09;5009516;28;19918;-51
2023/03/29 02:06:32;;;;;;;;;;;;;;;14.54;73.48;101373.41;4987256;28;19925;-49
2023/03/29 02:08:59;;;;;;;;;;;;;;;15.00;72.52;101366.28;4991014;28;19961;-48
2023/03/29 02:11:25;;;;;;;;;;;;;;;15.49;70.60;101372.09;4990777;28;19936;-49
2023/03/29 02:13:52;;;;;;;;;;;;;;;15.73;69.44;101364.28;5001733;28;19914;-49
2023/03/29 02:16:18;;;;;;;;;;;;;;;14.93;71.54;101365.47;4980624;28;19924;-48
2023/03/29 02:18:45;;;;;;;;;;;;;;;15.15;72.19;101361.47;4992868;28;19914;-51
2023/03/29 02:21:15;;;;;;;;;;;;;;;15.03;72.48;101353.22;4988890;28;19944;-49
2023/03/29 02:23:45;;;;;;;;;;;;;;;15.67;70.26;101347.09;4989123;28;19914;-48
2023/03/29 02:26:13;;;;;;;;;;;;;;;16.86;63.24;101352.75;5005680;28;19918;-49
2023/03/29 02:28:39;;;;;;;;;;;;;;;15.87;69.31;101338.88;4998943;28;19925;-53
2023/03/29 02:31:14;;;;;;;;;;;;;;;15.97;69.79;101341.09;4984616;28;19922;-54
2023/03/29 02:33:40;;;;;;;;;;;;;;;15.37;70.73;101346.84;4994805;28;19914;-51
2023/03/29 02:36:13;;;;;;;;;;;;;;;15.82;70.41;101337.88;4990802;28;19914;-51
2023/03/29 02:38:39;;;;;;;;;;;;;;;15.60;70.60;101336.34;4988671;28;19926;-53
2023/03/29 02:41:06;;;;;;;;;;;;;;;15.85;69.05;101335.56;5020609;28;19948;-50
2023/03/29 02:43:34;;;;;;;;;;;;;;;15.83;70.17;101334.16;4988107;28;19921;-51
2023/03/29 02:46:00;;;;;;;;;;;;;;;16.11;69.22;101328.34;4989110;28;19981;-53
2023/03/29 02:48:27;;;;;;;;;;;;;;;15.59;71.07;101325.81;5005380;28;19917;-53
2023/03/29 02:50:55;;;;;;;;;;;;;;;16.31;69.30;101322.78;5011812;28;19906;-53
2023/03/29 02:53:26;;;;;;;;;;;;;;;16.03;68.93;101329.47;4989139;28;19918;-50
2023/03/29 02:55:52;;;;;;;;;;;;;;;15.70;70.65;101324.28;5005600;28;19914;-50
2023/03/29 02:58:19;;;;;;;;;;;;;;;16.39;68.61;101318.13;4991185;28;19914;-50
2023/03/29 03:00:47;;;;;;;;;;;;;;;16.14;68.76;101317.09;5000884;28;19914;-52
2023/03/29 03:03:14;;;;;;;;;;;;;;;15.58;70.94;101311.47;4993207;28;19914;-52
2023/03/29 03:05:42;;;;;;;;;;;;;;;15.79;69.72;101314.88;4995775;28;19921;-49
2023/03/29 03:08:07;;;;;;;;;;;;;;;15.61;71.25;101307.53;4993037;28;19914;-49
2023/03/29 03:10:33;;;;;;;;;;;;;;;15.55;71.30;101308.38;4988788;28;20031;-50
2023/03/29 03:12:59;;;;;;;;;;;;;;;15.74;69.58;101303.91;4996700;28;19934;-48
2023/03/29 03:15:26;;;;;;;;;;;;;;;16.01;69.72;101295.66;4985325;28;19914;-50
2023/03/29 03:17:52;;;;;;;;;;;;;;;15.79;69.97;101293.28;4998889;28;20001;-47
2023/03/29 03:20:20;;;;;;;;;;;;;;;15.85;69.67;101297.81;5002718;28;19914;-51
2023/03/29 03:22:47;;;;;;;;;;;;;;;15.98;69.81;101290.69;5009639;28;19918;-50
2023/03/29 03:25:19;;;;;;;;;;;;;;;15.93;67.82;101287.84;4989660;28;19914;-51
2023/03/29 03:27:47;;;;;;;;;;;;;;;15.38;70.81;101289.22;4989729;28;19914;-53
2023/03/29 03:30:13;;;;;;;;;;;;;;;15.74;70.81;101290.44;4985016;28;19936;-52
2023/03/29 03:33:02;;;;;;;;;;;;;;;16.22;68.19;101289.00;4987426;28;19941;-51
2023/03/29 03:36:05;;;;;;;;;;;;;;;15.88;67.35;101289.31;4993164;28;19941;-49
2023/03/29 03:38:34;;;;;;;;;;;;;;;16.52;69.36;101285.63;5006584;28;20435;-49
2023/03/29 03:41:00;;;;;;;;;;;;;;;15.99;68.57;101286.94;4971093;28;19922;-49
2023/03/29 03:43:28;;;;;;;;;;;;;;;15.89;69.18;101290.94;4971546;28;19914;-50
2023/03/29 03:45:55;;;;;;;;;;;;;;;15.97;68.47;101283.66;4972731;28;20305;-51
2023/03/29 03:48:22;;;;;;;;;;;;;;;15.78;68.55;101287.06;4968454;28;19914;-49
2023/03/29 03:50:55;;;;;;;;;;;;;;;15.97;68.31;101284.47;4970645;28;19973;-48
2023/03/29 03:53:24;;;;;;;;;;;;;;;15.58;69.37;101292.63;4965339;28;19944;-49
2023/03/29 03:56:22;;;;;;;;;;;;;;;15.52;68.77;101298.88;4974713;28;19940;-54
2023/03/29 03:59:06;;;;;;;;;;;;;;;15.70;69.26;101290.03;4966815;28;19923;-51
2023/03/29 04:01:42;;;;;;;;;;;;;;;15.68;69.11;101292.13;4969049;28;19953;-52
2023/03/29 04:04:13;;;;;;;;;;;;;;;15.84;68.57;101293.47;4974158;28;19950;-49
2023/03/29 04:06:44;;;;;;;;;;;;;;;15.81;68.06;101285.81;4973825;28;19937;-54
2023/03/29 04:09:34;;;;;;;;;;;;;;;15.93;67.32;101288.66;4972000;28;19914;-49
2023/03/29 04:12:13;;;;;;;;;;;;;;;15.47;68.97;101285.22;4969863;28;19915;-55
2023/03/29 04:14:41;;;;;;;;;;;;;;;15.46;68.76;101288.97;4968322;28;19919;-55
2023/03/29 04:17:13;;;;;;;;;;;;;;;15.93;67.36;101285.16;4971355;28;19960;-53
2023/03/29 04:19:47;;;;;;;;;;;;;;;15.90;67.00;101279.13;4970660;28;19925;-51
2023/03/29 04:22:12;;;;;;;;;;;;;;;15.82;67.42;101273.97;4970921;28;19923;-52
2023/03/29 04:24:38;;;;;;;;;;;;;;;15.89;67.20;101269.38;4968850;28;19968;-52
2023/03/29 04:27:26;;;;;;;;;;;;;;;15.67;67.08;101274.31;4975292;28;19921;-51
2023/03/29 04:29:52;;;;;;;;;;;;;;;15.68;67.29;101270.56;4967305;28;19924;-48
2023/03/29 04:32:26;;;;;;;;;;;;;;;16.30;66.37;101260.91;4969438;28;19914;-49
2023/03/29 04:34:59;;;;;;;;;;;;;;;15.98;66.90;101263.72;4966933;28;19918;-51
2023/03/29 04:37:25;;;;;;;;;;;;;;;16.18;66.40;101252.72;4974915;28;19937;-51
2023/03/29 04:39:53;;;;;;;;;;;;;;;15.94;67.06;101244.44;4968418;28;19976;-52
2023/03/29 04:42:19;;;;;;;;;;;;;;;16.29;66.51;101251.16;4966102;28;19941;-53
2023/03/29 04:44:45;;;;;;;;;;;;;;;16.15;66.37;101243.22;4969970;28;19914;-50
2023/03/29 04:47:14;;;;;;;;;;;;;;;17.39;63.89;101253.16;4965326;28;19918;-56
2023/03/29 04:49:56;;;;;;;;;;;;;;;16.48;64.04;101252.84;4968999;28;19921;-51
2023/03/29 04:52:33;;;;;;;;;;;;;;;16.74;64.65;101250.88;4967299;28;19914;-52
2023/03/29 04:55:03;;;;;;;;;;;;;;;15.98;66.03;101255.63;4967151;28;19914;-49
2023/03/29 04:57:55;;;;;;;;;;;;;;;16.07;66.07;101245.38;4967090;28;19921;-52
2023/03/29 05:00:30;;;;;;;;;;;;;;;17.10;63.65;101250.25;4970937;28;19925;-48
2023/03/29 05:03:15;;;;;;;;;;;;;;;17.14;62.33;101243.31;4968817;28;19925;-53
2023/03/29 05:05:50;;;;;;;;;;;;;;;16.86;62.86;101247.41;4969268;28;19936;-50
2023/03/29 05:08:15;;;;;;;;;;;;;;;16.71;63.10;101254.03;4967855;28;19915;-51
2023/03/29 05:11:08;;;;;;;;;;;;;;;16.56;63.46;101245.47;4975689;28;19921;-51
2023/03/29 05:13:33;;;;;;;;;;;;;;;16.56;63.34;101253.56;4967252;28;20285;-48
2023/03/29 05:15:59;;;;;;;;;;;;;;;17.03;61.05;101253.03;4965001;28;19925;-47
2023/03/29 05:18:25;;;;;;;;;;;;;;;16.78;63.03;101248.56;4964946;28;19937;-49
2023/03/29 05:20:51;;;;;;;;;;;;;;;16.26;63.74;101254.31;4970939;28;19945;-51
2023/03/29 05:23:19;;;;;;;;;;;;;;;16.29;64.53;101251.16;4970195;28;19921;-53
2023/03/29 05:26:03;;;;;;;;;;;;;;;16.28;64.65;101246.81;4967873;28;19929;-50
2023/03/29 05:28:30;;;;;;;;;;;;;;;16.24;65.06;101251.03;4969399;28;20027;-51
2023/03/29 05:31:00;;;;;;;;;;;;;;;16.69;63.91;101258.00;4971978;28;19914;-49
2023/03/29 05:33:25;;;;;;;;;;;;;;;16.41;64.44;101253.94;4965671;28;19918;-53
2023/03/29 05:36:02;;;;;;;;;;;;;;;16.66;63.89;101263.84;4968382;28;19953;-52
2023/03/29 05:38:29;;;;;;;;;;;;;;;16.27;64.01;101256.81;4967302;28;19954;-50
2023/03/29 05:40:55;;;;;;;;;;;;;;;16.26;64.98;101262.41;4969532;28;19921;-52
2023/03/29 05:43:39;;;;;;;;;;;;;;;16.41;64.41;101256.66;4971865;28;19918;-52
2023/03/29 05:46:06;;;;;;;;;;;;;;;16.02;65.45;101264.94;4970947;28;19924;-50
2023/03/29 05:48:32;;;;;;;;;;;;;;;16.03;65.35;101266.56;4968089;28;19915;-50
2023/03/29 05:50:58;;;;;;;;;;;;;;;16.47;64.78;101264.69;4966103;28;19958;-51
2023/03/29 05:53:25;;;;;;;;;;;;;;;17.43;63.70;101265.16;4968782;28;19914;-49
2023/03/29 05:55:52;;;;;;;;;;;;;;;16.53;64.05;101270.22;4964961;28;19914;-52
2023/03/29 05:58:21;;;;;;;;;;;;;;;16.84;63.32;101271.94;4967109;28;19918;-50
2023/03/29 06:00:50;;;;;;;;;;;;;;;16.48;64.24;101268.19;4966959;28;19914;-48
2023/03/29 06:03:35;;;;;;;;;;;;;;;16.13;65.61;101272.28;4967405;28;19918;-48
2023/03/29 06:06:02;;;;;;;;;;;;;;;16.02;66.14;101270.31;4966145;28;20305;-50
2023/03/29 06:08:28;;;;;;;;;;;;;;;16.20;65.76;101270.34;4963942;28;19922;-48
2023/03/29 06:11:04;;;;;;;;;;;;;;;16.42;65.93;101267.25;4965084;28;19922;-49
2023/03/29 06:13:52;;;;;;;;;;;;;;;16.63;66.24;101276.75;4986176;28;19922;-50
2023/03/29 06:16:18;;;;;;;;;;;;;;;16.41;67.01;101271.00;4967298;28;19933;-49
2023/03/29 06:18:44;;;;;;;;;;;;;;;16.42;67.12;101272.63;4967929;28;19929;-53
2023/03/29 06:21:09;;;;;;;;;;;;;;;16.53;67.91;101267.53;4967907;28;19918;-50
2023/03/29 06:23:36;;;;;;;;;;;;;;;16.66;67.46;101264.69;4962930;28;19915;-49
2023/03/29 06:26:02;;;;;;;;;;;;;;;16.45;68.55;101274.88;4968521;28;19915;-53
2023/03/29 06:28:27;;;;;;;;;;;;;;;16.59;69.37;101272.00;4967753;28;19933;-52
2023/03/29 06:30:55;;;;;;;;;;;;;;;17.17;67.58;101272.59;4966579;28;20029;-49
2023/03/29 06:33:23;;;;;;;;;;;;;;;17.62;64.90;101274.84;4970865;28;19989;-54
2023/03/29 06:35:54;;;;;;;;;;;;;;;17.27;65.46;101272.03;4966126;28;19914;-48
2023/03/29 06:38:26;;;;;;;;;;;;;;;17.31;64.55;101271.38;4965285;28;19953;-54
2023/03/29 06:41:31;;;;;;;;;;;;;;;17.37;64.77;101269.59;4922714;28;19919;-52
2023/03/29 06:44:16;;;;;;;;;;;;;;;17.51;64.51;101270.22;4918997;29;19915;-54
2023/03/29 06:46:57;;;;;;;;;;;;;;;17.30;64.48;101274.28;4992802;28;19914;-47
2023/03/29 06:49:23;;;;;;;;;;;;;;;17.29;64.02;101273.44;4968255;28;20363;-51
2023/03/29 06:52:00;;;;;;;;;;;;;;;17.17;63.86;101283.41;4965166;28;19990;-49
2023/03/29 06:54:25;;;;;;;;;;;;;;;17.27;64.02;101275.56;4973926;28;20534;-49
2023/03/29 06:56:59;;;;;;;;;;;;;;;17.53;62.97;101283.53;4968030;28;19986;-52
2023/03/29 06:59:26;;;;;;;;;;;;;;;16.92;64.28;101278.91;4969117;28;19915;-50
2023/03/29 07:01:55;;;;;;;;;;;;;;;17.53;63.07;101280.81;4971001;28;19922;-56
2023/03/29 07:04:33;;;;;;;;;;;;;;;17.76;62.01;101280.03;4971188;28;19914;-52
2023/03/29 07:07:32;;;;;;;;;;;;;;;17.86;62.22;101284.84;4974825;28;19996;-52
2023/03/29 07:10:09;;;;;;;;;;;;;;;17.83;61.91;101291.59;4973084;28;19942;-50
2023/03/29 07:12:53;;;;;;;;;;;;;;;17.69;62.60;101284.72;4972003;28;19926;-53
2023/03/29 07:15:20;;;;;;;;;;;;;;;18.14;61.60;101288.81;4972495;28;19985;-49
2023/03/29 07:18:05;;;;;;;;;;;;;;;18.20;61.68;101291.38;4970942;28;19965;-52
2023/03/29 07:20:32;;;;;;;;;;;;;;;18.10;61.95;101285.75;4972396;28;20006;-51
2023/03/29 07:23:06;;;;;;;;;;;;;;;17.96;62.73;101290.53;4972750;28;20072;-54
2023/03/29 07:25:32;;;;;;;;;;;;;;;17.89;63.78;101295.25;4969771;28;19938;-52
2023/03/29 07:27:58;;;;;;;;;;;;;;;17.77;63.71;101292.53;4972640;28;19921;-54
2023/03/29 07:30:27;;;;;;;;;;;;;;;18.28;62.58;101298.31;4968681;28;19982;-52
2023/03/29 07:32:56;;;;;;;;;;;;;;;18.12;63.14;101288.22;4969291;28;19973;-54
2023/03/29 07:35:43;;;;;;;;;;;;;;;17.42;64.71;101290.53;4966256;29;19925;-51
2023/03/29 07:38:09;;;;;;;;;;;;;;;17.47;65.26;101296.06;4973655;28;19922;-51
2023/03/29 07:40:37;;;;;;;;;;;;;;;18.16;63.45;101303.75;5015992;28;19964;-52
2023/03/29 07:43:41;;;;;;;;;;;;;;;18.12;63.89;101302.56;4984631;28;19965;-54
2023/03/29 07:46:08;;;;;;;;;;;;;;;18.97;60.17;101312.22;4970610;28;19921;-49
2023/03/29 07:48:35;;;;;;;;;;;;;;;18.25;62.64;101306.13;5003186;28;19933;-51
2023/03/29 07:51:05;;;;;;;;;;;;;;;18.03;64.19;101309.41;4982734;28;19918;-51
2023/03/29 07:53:40;;;;;;;;;;;;;;;18.16;63.34;101297.53;5004430;28;19914;-50
2023/03/29 07:56:14;;;;;;;;;;;;;;;18.38;62.50;101305.06;5014654;28;20289;-52
2023/03/29 07:58:45;;;;;;;;;;;;;;;19.17;61.31;101309.94;4999440;28;19957;-52
2023/03/29 08:01:14;;;;;;;;;;;;;;;19.58;59.57;101317.19;5007591;28;19987;-53
2023/03/29 08:03:59;;;;;;;;;;;;;;;19.30;59.96;101313.44;4991046;28;19964;-51
2023/03/29 08:06:44;;;;;;;;;;;;;;;18.30;62.28;101308.94;4988036;28;19918;-51
2023/03/29 08:09:10;;;;;;;;;;;;;;;18.58;62.40;101310.09;4990960;28;19918;-51
2023/03/29 08:11:38;;;;;;;;;;;;;;;19.11;61.96;101310.09;5014832;28;19914;-46
2023/03/29 08:14:11;;;;;;;;;;;;;;;18.56;62.79;101298.66;4978032;28;19921;-52
2023/03/29 08:17:12;;;;;;;;;;;;;;;18.52;64.07;101306.44;5004124;28;19945;-50
2023/03/29 08:19:44;;;;;;;;;;;;;;;18.64;64.27;101303.69;4974934;28;19915;-50
2023/03/29 08:22:09;;;;;;;;;;;;;;;19.02;63.73;101299.63;5001699;28;19925;-51
2023/03/29 08:25:06;;;;;;;;;;;;;;;18.74;64.94;101298.50;4975517;28;19942;-51
2023/03/29 08:27:37;;;;;;;;;;;;;;;19.02;65.18;101298.81;4998512;28;19925;-51
2023/03/29 08:30:06;;;;;;;;;;;;;;;18.85;65.93;101290.59;4980127;28;19922;-52
2023/03/29 08:32:35;;;;;;;;;;;;;;;19.45;64.69;101292.00;4984704;28;19914;-49
2023/03/29 08:35:03;;;;;;;;;;;;;;;19.71;66.51;101286.22;4996039;28;19914;-53
2023/03/29 08:37:40;;;;;;;;;;;;;;;18.39;71.21;101295.88;4984124;28;19944;-52
2023/03/29 08:40:06;;;;;;;;;;;;;;;18.84;71.39;101286.22;4987817;28;19914;-51
2023/03/29 08:42:50;;;;;;;;;;;;;;;18.83;71.08;101285.41;4984666;28;19925;-52
2023/03/29 08:45:37;;;;;;;;;;;;;;;18.56;72.80;101288.63;4998294;28;19935;-53
2023/03/29 08:48:11;;;;;;;;;;;;;;;18.90;71.47;101290.69;5011921;28;19920;-50
2023/03/29 08:50:39;;;;;;;;;;;;;;;19.42;69.57;101275.44;5025730;28;19914;-48
2023/03/29 08:53:15;;;;;;;;;;;;;;;19.49;67.45;101292.34;5019005;28;20426;-53
2023/03/29 08:56:03;;;;;;;;;;;;;;;19.48;68.36;101274.44;4982498;28;19920;-49
2023/03/29 08:58:50;;;;;;;;;;;;;;;19.43;68.61;101293.34;4989765;28;19918;-49
2023/03/29 09:01:17;;;;;;;;;;;;;;;19.90;67.44;101270.50;4993546;28;19922;-53
2023/03/29 09:03:58;;;;;;;;;;;;;;;19.43;68.72;101280.59;4986422;28;19925;-48
2023/03/29 09:06:38;;;;;;;;;;;;;;;19.63;67.60;101298.28;4982795;28;19918;-50
2023/03/29 09:09:16;;;;;;;;;;;;;;;18.74;70.83;101282.25;4992172;28;19914;-53
2023/03/29 09:11:42;;;;;;;;;;;;;;;19.88;68.11;101291.63;4972602;28;19914;-49
2023/03/29 09:14:07;;;;;;;;;;;;;;;19.67;67.73;101304.06;4991785;28;19925;-52
2023/03/29 09:16:48;;;;;;;;;;;;;;;19.88;67.64;101297.91;4985210;28;19959;-52
2023/03/29 09:19:29;;;;;;;;;;;;;;;19.84;66.86;101299.47;4990965;28;19918;-50
2023/03/29 09:22:18;;;;;;;;;;;;;;;20.16;65.02;101298.91;4969795;28;19968;-50
2023/03/29 09:25:04;;;;;;;;;;;;;;;20.30;65.04;101291.22;4986655;28;19921;-52
2023/03/29 09:27:31;;;;;;;;;;;;;;;20.70;63.44;101294.72;4991947;28;19977;-52
2023/03/29 09:30:25;;;;;;;;;;;;;;;20.37;64.46;101295.63;4970277;28;19967;-52
2023/03/29 09:32:57;;;;;;;;;;;;;;;20.12;65.76;101295.03;4991920;28;19914;-51
2023/03/29 09:35:52;;;;;;;;;;;;;;;20.77;64.25;101295.38;4996850;28;20001;-51
2023/03/29 09:38:20;;;;;;;;;;;;;;;21.32;62.04;101294.59;4965400;28;19918;-53
2023/03/29 09:40:48;;;;;;;;;;;;;;;21.22;62.81;101295.34;4969589;28;19914;-52
2023/03/29 09:43:27;;;;;;;;;;;;;;;21.54;60.98;101299.16;4969480;28;19914;-51
2023/03/29 09:45:56;;;;;;;;;;;;;;;21.79;61.63;101295.88;4985709;28;19981;-52
2023/03/29 09:48:23;;;;;;;;;;;;;;;20.94;62.84;101294.50;4971180;28;19914;-55
2023/03/29 09:50:54;;;;;;;;;;;;;;;20.45;64.25;101303.38;4970210;28;19914;-52
2023/03/29 09:53:20;;;;;;;;;;;;;;;21.31;61.44;101293.81;4968534;28;19918;-53
2023/03/29 09:56:01;;;;;;;;;;;;;;;20.78;63.55;101297.00;4968561;28;20017;-52
2023/03/29 09:58:42;;;;;;;;;;;;;;;21.58;61.94;101292.97;4968344;28;19940;-52
2023/03/29 10:01:11;;;;;;;;;;;;;;;21.37;62.67;101296.56;4967098;28;19922;-49
2023/03/29 10:03:38;;;;;;;;;;;;;;;21.39;62.91;101302.56;4963623;28;19937;-48
2023/03/29 10:06:13;;;;;;;;;;;;;;;20.75;64.67;101302.13;4966048;28;19948;-51
2023/03/29 10:08:51;;;;;;;;;;;;;;;20.37;66.05;101293.75;4968041;28;19925;-54
2023/03/29 10:11:37;;;;;;;;;;;;;;;20.74;65.69;101290.41;4964940;28;19915;-53
2023/03/29 10:14:03;;;;;;;;;;;;;;;21.87;60.83;101295.38;4966004;28;19914;-48
2023/03/29 10:16:32;;;;;;;;;;;;;;;21.52;63.40;101287.72;4967651;28;19960;-54
2023/03/29 10:18:57;;;;;;;;;;;;;;;20.93;64.51;101287.41;4965097;28;19914;-54
2023/03/29 10:21:23;;;;;;;;;;;;;;;20.40;67.57;101289.69;4964958;28;19925;-52
2023/03/29 10:23:57;;;;;;;;;;;;;;;20.53;69.67;101277.66;4967468;28;19954;-54
2023/03/29 10:26:26;;;;;;;;;;;;;;;20.29;70.44;101286.84;4969741;28;19936;-55
2023/03/29 10:28:53;;;;;;;;;;;;;;;21.41;66.45;101275.94;4974943;28;19942;-56
2023/03/29 10:31:21;;;;;;;;;;;;;;;21.62;65.99;101272.31;4972795;28;19922;-54
2023/03/29 10:33:54;;;;;;;;;;;;;;;22.66;63.29;101269.44;4973581;28;19965;-57
2023/03/29 10:36:20;;;;;;;;;;;;;;;21.66;64.54;101269.09;4972459;28;20005;-54
2023/03/29 10:38:46;;;;;;;;;;;;;;;21.59;65.39;101275.56;4985043;28;19925;-52
2023/03/29 10:41:12;;;;;;;;;;;;;;;21.47;66.39;101274.91;4991733;28;19921;-53
2023/03/29 10:43:41;;;;;;;;;;;;;;;21.46;66.00;101279.53;4989320;28;19922;-53
2023/03/29 10:46:06;;;;;;;;;;;;;;;20.94;66.92;101283.63;5010953;28;19993;-51
2023/03/29 10:48:33;;;;;;;;;;;;;;;20.95;68.21;101271.66;4992531;28;19914;-54
2023/03/29 10:50:59;;;;;;;;;;;;;;;20.92;67.38;101269.47;4991173;28;19937;-52
2023/03/29 10:53:29;;;;;;;;;;;;;;;21.37;66.84;101255.75;4991486;28;19956;-54
2023/03/29 10:56:06;;;;;;;;;;;;;;;21.55;64.96;101251.84;4992966;28;19928;-54
2023/03/29 10:58:50;;;;;;;;;;;;;;;21.39;66.71;101250.88;4990118;28;19924;-52
2023/03/29 11:01:26;;;;;;;;;;;;;;;21.80;67.45;101251.25;4990041;28;19994;-55
2023/03/29 11:03:54;;;;;;;;;;;;;;;22.12;66.54;101263.16;4988752;28;19948;-54
2023/03/29 11:06:31;;;;;;;;;;;;;;;21.94;67.21;101253.53;4988581;28;19914;-54
2023/03/29 11:09:05;;;;;;;;;;;;;;;20.86;70.63;101254.19;4991964;28;19949;-52
2023/03/29 11:11:50;;;;;;;;;;;;;;;21.06;70.86;101232.66;4992321;28;19913;-50
2023/03/29 11:14:21;;;;;;;;;;;;;;;20.51;71.67;101250.75;4989858;28;19910;-51
2023/03/29 11:16:46;;;;;;;;;;;;;;;20.87;72.40;101231.34;4991980;28;19914;-55
2023/03/29 11:19:31;;;;;;;;;;;;;;;21.02;73.04;101228.81;5000673;28;19951;-50
2023/03/29 11:22:12;;;;;;;;;;;;;;;21.20;71.98;101240.38;4992108;28;20601;-51
2023/03/29 11:24:45;;;;;;;;;;;;;;;21.51;70.37;101227.06;4989329;28;19925;-51
2023/03/29 11:27:22;;;;;;;;;;;;;;;20.98;72.36;101224.94;4985630;28;19914;-54
2023/03/29 11:29:59;;;;;;;;;;;;;;;21.06;71.08;101229.94;4983940;28;19914;-51
2023/03/29 11:32:27;;;;;;;;;;;;;;;21.46;69.30;101218.88;4985061;28;19941;-53
2023/03/29 11:34:53;;;;;;;;;;;;;;;22.13;68.20;101227.47;4984709;28;19914;-54
2023/03/29 11:37:48;;;;;;;;;;;;;;;22.55;66.87;101238.59;4989538;28;19936;-53
2023/03/29 11:40:30;;;;;;;;;;;;;;;22.12;67.47;101238.66;4961243;28;19920;-53
2023/03/29 11:42:57;;;;;;;;;;;;;;;21.49;69.57;101248.25;4939215;29;19923;-53
2023/03/29 11:45:35;;;;;;;;;;;;;;;21.46;70.31;101243.34;4944380;29;19937;-52
2023/03/29 11:48:03;;;;;;;;;;;;;;;21.97;69.54;101255.72;4948565;29;19936;-53
2023/03/29 11:50:35;;;;;;;;;;;;;;;21.31;71.88;101244.00;4940235;29;19922;-53
2023/03/29 11:53:07;;;;;;;;;;;;;;;21.81;71.13;101247.44;4937065;29;19915;-53
2023/03/29 11:55:35;;;;;;;;;;;;;;;21.93;69.98;101255.41;4945622;29;19937;-54
2023/03/29 11:58:09;;;;;;;;;;;;;;;21.19;72.87;101245.00;4944885;29;19915;-55
2023/03/29 12:00:37;;;;;;;;;;;;;;;21.63;72.17;101245.94;4940957;29;19950;-52
2023/03/29 12:03:11;;;;;;;;;;;;;;;21.68;71.47;101235.09;4942924;29;19927;-49
2023/03/29 12:05:58;;;;;;;;;;;;;;;22.76;69.73;101237.59;4939902;29;19926;-53
2023/03/29 12:08:28;;;;;;;;;;;;;;;21.90;70.45;101234.97;4941727;29;19943;-51
2023/03/29 12:11:06;;;;;;;;;;;;;;;21.57;72.08;101230.66;4940785;29;19922;-55
2023/03/29 12:13:35;;;;;;;;;;;;;;;21.19;73.30;101241.44;4944319;29;19926;-53
2023/03/29 12:16:20;;;;;;;;;;;;;;;21.10;75.22;101246.53;4945728;29;19926;-53
2023/03/29 12:18:48;;;;;;;;;;;;;;;25.02;69.78;101242.19;4938383;29;19982;-55
2023/03/29 12:21:16;;;;;;;;;;;;;;;21.32;73.49;101251.09;4944758;29;19919;-54
2023/03/29 12:23:42;;;;;;;;;;;;;;;20.95;76.14;101241.75;4939926;29;19915;-51
2023/03/29 12:26:16;;;;;;;;;;;;;;;21.01;76.34;101245.34;4937274;29;19965;-53
2023/03/29 12:29:04;;;;;;;;;;;;;;;21.18;76.06;101242.53;4942854;29;19915;-53
2023/03/29 12:31:35;;;;;;;;;;;;;;;21.35;75.20;101229.63;4944347;29;19918;-50
2023/03/29 12:34:23;;;;;;;;;;;;;;;22.78;69.74;101226.44;4942049;29;19915;-51
2023/03/29 12:37:22;;;;;;;;;;;;;;;22.49;70.64;101224.97;4942822;29;19919;-50
2023/03/29 12:40:26;;;;;;;;;;;;;;;22.61;69.28;101227.47;4967431;29;19978;-50
2023/03/29 12:43:30;;;;;;;;;;;;;;;22.61;69.28;101215.75;4987193;28;19933;-52
2023/03/29 12:46:17;;;;;;;;;;;;;;;22.54;68.97;101210.53;4963433;28;19914;-53
2023/03/29 12:48:45;;;;;;;;;;;;;;;23.84;65.61;101202.44;4967691;29;19936;-52
2023/03/29 12:51:12;;;;;;;;;;;;;;;23.88;64.55;101198.09;4968565;28;19925;-55
2023/03/29 12:53:41;;;;;;;;;;;;;;;23.30;65.28;101193.78;4968716;28;19941;-55
2023/03/29 12:56:07;;;;;;;;;;;;;;;24.27;62.68;101172.03;4960546;28;20314;-51
2023/03/29 12:58:41;;;;;;;;;;;;;;;24.67;61.22;101175.63;4962615;28;19918;-51
2023/03/29 13:01:26;;;;;;;;;;;;;;;23.80;62.33;101180.34;4963255;28;19988;-53
2023/03/29 13:04:00;;;;;;;;;;;;;;;23.98;61.74;101180.84;4965802;28;19914;-50